createdAt,value
2019-03-13T08:48:50.908Z,6.53
2019-03-13T08:51:17.588Z,6.10
2019-03-13T08:53:44.128Z,6.00
2019-03-13T08:56:10.743Z,5.00
2019-03-13T08:58:37.460Z,3.57
2019-03-13T09:01:03.974Z,3.93
2019-03-13T09:03:30.774Z,3.20
2019-03-13T09:05:57.534Z,2.87
2019-03-13T09:08:24.218Z,2.80
2019-03-13T09:10:51.055Z,3.43
2019-03-13T09:13:17.936Z,3.27
2019-03-13T09:15:44.794Z,2.90
2019-03-13T09:18:20.874Z,2.90
2019-03-13T09:20:47.634Z,2.10
2019-03-13T09:23:14.394Z,2.65
2019-03-13T09:25:41.157Z,2.70
2019-03-13T09:28:07.915Z,2.62
2019-03-13T09:30:34.828Z,2.50
2019-03-13T09:33:01.656Z,2.10
2019-03-13T09:35:28.764Z,2.60
2019-03-13T09:37:55.578Z,2.70
2019-03-13T09:40:22.312Z,3.50
2019-03-13T09:42:49.236Z,3.53
2019-03-13T09:45:16.302Z,3.00
2019-03-13T09:47:42.942Z,3.23
2019-03-13T09:50:09.522Z,2.60
2019-03-13T09:52:36.257Z,3.47
2019-03-13T09:55:04.487Z,2.83
2019-03-13T09:57:31.381Z,2.55
2019-03-13T09:59:58.061Z,1.90
2019-03-13T10:02:24.842Z,2.17
2019-03-13T10:04:51.316Z,2.22
2019-03-13T10:07:18.104Z,2.40
2019-03-13T10:09:44.831Z,2.65
2019-03-13T10:12:11.589Z,2.33
2019-03-13T10:14:38.445Z,2.60
2019-03-13T10:17:10.692Z,2.00
2019-03-13T10:19:33.536Z,2.20
2019-03-13T10:22:00.277Z,2.75
2019-03-13T10:24:27.019Z,2.90
2019-03-13T10:26:53.691Z,2.17
2019-03-13T10:29:20.271Z,1.80
2019-03-13T10:31:46.947Z,2.17
2019-03-13T10:34:15.506Z,2.30
2019-03-13T10:36:42.235Z,2.15
2019-03-13T10:39:08.850Z,2.10
2019-03-13T10:41:35.551Z,2.17
2019-03-13T10:44:02.150Z,2.35
2019-03-13T10:46:28.799Z,2.65
2019-03-13T10:48:55.297Z,2.30
2019-03-13T10:51:21.837Z,3.92
2019-03-13T10:53:48.319Z,2.60
2019-03-13T10:56:14.875Z,2.20
2019-03-13T10:58:41.606Z,3.17
2019-03-13T11:01:08.277Z,3.75
2019-03-13T11:03:34.855Z,5.85
2019-03-13T11:06:01.595Z,3.95
2019-03-13T11:08:28.245Z,4.10
2019-03-13T11:10:54.958Z,4.12
2019-03-13T11:13:21.611Z,3.58
2019-03-13T11:15:48.197Z,3.47
2019-03-13T11:18:17.874Z,3.35
2019-03-13T11:20:43.314Z,3.45
2019-03-13T11:23:09.849Z,2.08
2019-03-13T11:25:36.619Z,2.40
2019-03-13T11:28:03.266Z,2.20
2019-03-13T11:30:29.918Z,2.05
2019-03-13T11:32:56.549Z,1.90
2019-03-13T11:35:23.303Z,2.65
2019-03-13T11:37:49.780Z,2.55
2019-03-13T11:40:16.428Z,2.55
2019-03-13T11:42:43.104Z,2.92
2019-03-13T11:45:09.568Z,2.90
2019-03-13T11:47:42.564Z,2.55
2019-03-13T11:50:04.843Z,3.27
2019-03-13T11:52:31.695Z,2.35
2019-03-13T11:54:58.125Z,2.45
2019-03-13T11:57:24.676Z,2.55
2019-03-13T11:59:51.172Z,3.15
2019-03-13T12:02:17.852Z,3.85
2019-03-13T12:04:44.479Z,3.75
2019-03-13T12:07:11.039Z,3.80
2019-03-13T12:09:37.560Z,3.65
2019-03-13T12:12:04.340Z,3.75
2019-03-13T12:14:31.084Z,3.75
2019-03-13T12:16:57.751Z,3.85
2019-03-13T12:19:24.256Z,3.70
2019-03-13T12:21:50.757Z,4.15
2019-03-13T12:24:17.679Z,3.10
2019-03-13T12:26:44.242Z,3.33
2019-03-13T12:29:10.766Z,3.67
2019-03-13T12:31:37.366Z,3.08
2019-03-13T12:34:03.995Z,3.42
2019-03-13T12:36:30.769Z,3.05
2019-03-13T12:38:57.463Z,2.67
2019-03-13T12:41:23.951Z,2.50
2019-03-13T12:43:51.567Z,2.75
2019-03-13T12:46:18.095Z,2.40
2019-03-13T12:48:44.650Z,3.47
2019-03-13T12:51:11.352Z,2.40
2019-03-13T12:53:38.120Z,2.37
2019-03-13T12:56:04.806Z,2.50
2019-03-13T12:58:31.319Z,3.00
2019-03-13T13:00:57.992Z,3.58
2019-03-13T13:03:24.653Z,2.15
2019-03-13T13:05:51.530Z,2.25
2019-03-13T13:08:18.013Z,2.33
2019-03-13T13:10:44.473Z,2.10
2019-03-13T13:13:11.033Z,1.82
2019-03-13T13:15:37.658Z,3.20
2019-03-13T13:18:04.520Z,2.62
2019-03-13T13:20:31.137Z,2.52
2019-03-13T13:22:57.781Z,2.05
2019-03-13T13:25:24.499Z,2.47
2019-03-13T13:27:51.259Z,1.62
2019-03-13T13:30:18.019Z,4.55
2019-03-13T13:32:44.681Z,3.47
2019-03-13T13:35:11.366Z,2.05
2019-03-13T13:37:38.162Z,1.87
2019-03-13T13:40:04.756Z,2.00
2019-03-13T13:42:31.255Z,1.32
2019-03-13T13:44:57.879Z,2.12
2019-03-13T13:47:24.435Z,2.10
2019-03-13T13:49:59.748Z,2.12
2019-03-13T13:52:19.497Z,1.60
2019-03-13T13:54:46.055Z,1.47
2019-03-13T13:57:12.638Z,2.00
2019-03-13T13:59:39.130Z,1.82
2019-03-13T14:02:05.690Z,1.57
2019-03-13T14:04:32.130Z,1.30
2019-03-13T14:06:58.598Z,1.75
2019-03-13T14:09:25.130Z,1.70
2019-03-13T14:11:51.631Z,1.65
2019-03-13T14:14:18.064Z,1.20
2019-03-13T14:16:44.535Z,1.67
2019-03-13T14:19:11.051Z,1.60
2019-03-13T14:21:37.530Z,1.77
2019-03-13T14:24:04.024Z,1.82
2019-03-13T14:26:30.604Z,2.17
2019-03-13T14:28:57.067Z,3.80
2019-03-13T14:31:23.524Z,5.67
2019-03-13T14:33:50.024Z,4.60
2019-03-13T14:36:16.487Z,4.03
2019-03-13T14:38:43.003Z,3.10
2019-03-13T14:41:09.470Z,2.10
2019-03-13T14:43:35.960Z,2.12
2019-03-13T14:46:02.554Z,2.47
2019-03-13T14:48:29.050Z,2.75
2019-03-13T14:50:55.551Z,2.40
2019-03-13T14:53:22.010Z,2.22
2019-03-13T14:55:48.518Z,2.33
2019-03-13T14:58:14.975Z,2.62
2019-03-13T15:00:41.425Z,2.83
2019-03-13T15:03:07.964Z,2.20
2019-03-13T15:05:34.564Z,2.10
2019-03-13T15:08:01.028Z,2.05
2019-03-13T15:10:27.557Z,1.95
2019-03-13T15:12:54.088Z,2.40
2019-03-13T15:15:20.605Z,2.17
2019-03-13T15:17:47.082Z,1.98
2019-03-13T15:20:13.711Z,1.60
2019-03-13T15:22:40.273Z,1.50
2019-03-13T15:25:06.873Z,1.50
2019-03-13T15:27:33.376Z,2.60
2019-03-13T15:29:59.884Z,2.15
2019-03-13T15:32:26.353Z,1.87
2019-03-13T15:34:52.832Z,2.60
2019-03-13T15:37:19.361Z,2.30
2019-03-13T15:39:45.865Z,2.87
2019-03-13T15:42:12.455Z,2.05
2019-03-13T15:44:39.019Z,2.20
2019-03-13T15:47:05.609Z,2.52
2019-03-13T15:49:32.115Z,1.90
2019-03-13T15:51:58.592Z,1.55
2019-03-13T15:54:25.125Z,1.85
2019-03-13T15:56:51.600Z,2.08
2019-03-13T15:59:18.122Z,1.60
2019-03-13T16:01:44.651Z,1.92
2019-03-13T16:04:11.257Z,1.95
2019-03-13T16:06:37.893Z,1.82
2019-03-13T16:09:07.431Z,2.40
2019-03-13T16:11:33.972Z,2.75
2019-03-13T16:14:00.464Z,1.95
2019-03-13T16:16:26.939Z,2.10
2019-03-13T16:18:53.410Z,1.90
2019-03-13T16:21:19.977Z,2.12
2019-03-13T16:23:46.505Z,2.25
2019-03-13T16:26:13.335Z,2.20
2019-03-13T16:28:39.872Z,2.25
2019-03-13T16:31:06.362Z,2.17
2019-03-13T16:33:32.844Z,2.10
2019-03-13T16:35:59.319Z,2.25
2019-03-13T16:38:25.817Z,2.00
2019-03-13T16:40:52.269Z,1.75
2019-03-13T16:43:18.729Z,2.25
2019-03-13T16:45:45.480Z,1.92
2019-03-13T16:48:12.031Z,1.95
2019-03-13T16:50:38.615Z,2.05
2019-03-13T16:53:05.157Z,1.90
2019-03-13T16:55:31.770Z,2.92
2019-03-13T16:57:58.355Z,3.37
2019-03-13T17:00:24.857Z,3.17
2019-03-13T17:02:51.450Z,2.72
2019-03-13T17:05:18.178Z,2.70
2019-03-13T17:07:44.865Z,2.20
2019-03-13T17:10:11.334Z,2.47
2019-03-13T17:12:38.077Z,1.80
2019-03-13T17:15:04.687Z,1.98
2019-03-13T17:17:31.331Z,1.90
2019-03-13T17:19:57.955Z,2.20
2019-03-13T17:22:24.647Z,2.12
2019-03-13T17:24:51.370Z,1.95
2019-03-13T17:27:17.933Z,1.50
2019-03-13T17:29:44.681Z,1.45
2019-03-13T17:32:11.385Z,1.60
2019-03-13T17:34:37.946Z,1.45
2019-03-13T17:37:04.517Z,1.65
2019-03-13T17:39:33.729Z,2.40
2019-03-13T17:41:59.622Z,1.75
2019-03-13T17:44:26.307Z,1.60
2019-03-13T17:46:52.849Z,0.98
2019-03-13T17:49:19.330Z,1.22
2019-03-13T17:51:48.262Z,1.62
2019-03-13T17:54:14.473Z,1.50
2019-03-13T17:56:41.092Z,2.10
2019-03-13T17:59:07.561Z,1.42
2019-03-13T18:01:34.137Z,1.10
2019-03-13T18:04:00.806Z,1.90
2019-03-13T18:06:27.304Z,1.40
2019-03-13T18:08:53.785Z,2.05
2019-03-13T18:11:20.470Z,1.30
2019-03-13T18:13:46.989Z,2.40
2019-03-13T18:16:13.468Z,2.70
2019-03-13T18:18:40.144Z,3.65
2019-03-13T18:21:06.832Z,4.20
2019-03-13T18:23:33.390Z,1.95
2019-03-13T18:25:59.940Z,1.52
2019-03-13T18:28:26.481Z,1.32
2019-03-13T18:30:53.204Z,0.80
2019-03-13T18:33:19.969Z,0.82
2019-03-13T18:35:46.761Z,1.00
2019-03-13T18:38:13.349Z,0.98
2019-03-13T18:40:39.968Z,1.10
2019-03-13T18:43:06.647Z,1.50
2019-03-13T18:45:33.315Z,1.10
2019-03-13T18:47:59.894Z,1.95
2019-03-13T18:50:28.471Z,2.77
2019-03-13T18:52:54.958Z,1.35
2019-03-13T18:55:21.583Z,1.57
2019-03-13T18:57:50.612Z,2.00
2019-03-13T19:00:16.649Z,2.40
2019-03-13T19:02:43.374Z,1.85
2019-03-13T19:05:10.052Z,1.32
2019-03-13T19:07:36.578Z,1.00
2019-03-13T19:10:03.402Z,1.00
2019-03-13T19:12:30.253Z,0.70
2019-03-13T19:14:56.920Z,0.72
2019-03-13T19:17:23.568Z,1.20
2019-03-13T19:19:50.170Z,0.80
2019-03-13T19:22:16.896Z,1.02
2019-03-13T19:24:43.552Z,1.98
2019-03-13T19:27:10.185Z,1.25
2019-03-13T19:29:36.990Z,0.98
2019-03-13T19:32:03.569Z,1.10
2019-03-13T19:34:30.409Z,1.22
2019-03-13T19:36:56.988Z,4.80
2019-03-13T19:39:23.524Z,6.50
2019-03-13T19:41:50.090Z,5.50
2019-03-13T19:44:16.742Z,2.70
2019-03-13T19:46:43.568Z,1.60
2019-03-13T19:49:10.122Z,1.50
2019-03-13T19:51:36.722Z,1.50
2019-03-13T19:54:03.351Z,1.57
2019-03-13T19:56:30.051Z,2.10
2019-03-13T19:58:56.901Z,2.25
2019-03-13T20:01:23.622Z,2.25
2019-03-13T20:03:54.996Z,2.15
2019-03-13T20:06:18.642Z,2.75
2019-03-13T20:08:45.282Z,3.50
2019-03-13T20:11:12.044Z,4.85
2019-03-13T20:13:38.588Z,4.28
2019-03-13T20:16:05.150Z,4.58
2019-03-13T20:18:31.830Z,5.70
2019-03-13T20:20:58.497Z,4.70
2019-03-13T20:23:25.160Z,6.87
2019-03-13T20:25:51.697Z,7.20
2019-03-13T20:28:18.309Z,4.33
2019-03-13T20:30:44.810Z,3.77
2019-03-13T20:33:11.330Z,2.98
2019-03-13T20:35:38.029Z,2.65
2019-03-13T20:38:04.692Z,2.72
2019-03-13T20:40:31.468Z,1.67
2019-03-13T20:42:58.229Z,3.67
2019-03-13T20:45:26.509Z,8.30
2019-03-13T20:47:57.669Z,2.87
2019-03-13T20:50:35.682Z,2.37
2019-03-13T20:52:52.709Z,2.10
2019-03-13T20:55:19.401Z,2.27
2019-03-13T20:57:45.982Z,1.75
2019-03-13T21:00:12.722Z,1.82
2019-03-13T21:02:39.578Z,1.90
2019-03-13T21:05:06.177Z,2.05
2019-03-13T21:07:32.657Z,3.33
2019-03-13T21:09:59.254Z,2.70
2019-03-13T21:12:25.778Z,3.70
2019-03-13T21:14:52.457Z,4.72
2019-03-13T21:17:19.022Z,4.65
2019-03-13T21:19:45.503Z,3.80
2019-03-13T21:22:12.003Z,4.67
2019-03-13T21:24:38.600Z,4.22
2019-03-13T21:27:05.155Z,2.95
2019-03-13T21:29:31.642Z,3.20
2019-03-13T21:31:58.302Z,2.60
2019-03-13T21:34:28.130Z,2.65
2019-03-13T21:36:53.183Z,3.00
2019-03-13T21:39:19.760Z,2.90
2019-03-13T21:41:46.514Z,3.15
2019-03-13T21:44:13.473Z,2.98
2019-03-13T21:46:39.993Z,3.60
2019-03-13T21:49:07.984Z,3.60
2019-03-13T21:51:34.914Z,3.40
2019-03-13T21:54:01.562Z,2.87
2019-03-13T21:56:28.069Z,3.52
2019-03-13T21:58:54.705Z,3.00
2019-03-13T22:01:21.479Z,3.05
2019-03-13T22:03:48.090Z,2.65
2019-03-13T22:06:27.605Z,2.55
